sensor_id;sensor_type;location;lat;lon;timestamp;P1;durP1;ratioP1;P2;durP2;ratioP2
4555;SDS011;2290;48.674;9.018;2022-12-05T00:01:17;14.30;;;4.87;;
4555;SDS011;2290;48.674;9.018;2022-12-05T00:03:48;13.60;;;5.33;;
4555;SDS011;2290;48.674;9.018;2022-12-05T00:06:15;10.33;;;4.90;;
4555;SDS011;2290;48.674;9.018;2022-12-05T00:08:41;9.93;;;5.40;;
4555;SDS011;2290;48.674;9.018;2022-12-05T00:11:14;14.23;;;5.70;;
4555;SDS011;2290;48.674;9.018;2022-12-05T00:13:48;12.93;;;5.93;;
4555;SDS011;2290;48.674;9.018;2022-12-05T00:16:17;11.80;;;5.13;;
4555;SDS011;2290;48.674;9.018;2022-12-05T00:18:46;12.00;;;5.47;;
4555;SDS011;2290;48.674;9.018;2022-12-05T00:21:13;9.40;;;4.60;;
4555;SDS011;2290;48.674;9.018;2022-12-05T00:23:41;13.33;;;5.03;;
4555;SDS011;2290;48.674;9.018;2022-12-05T00:26:10;10.00;;;5.30;;
4555;SDS011;2290;48.674;9.018;2022-12-05T00:28:36;10.60;;;4.50;;
4555;SDS011;2290;48.674;9.018;2022-12-05T00:31:03;11.43;;;4.97;;
4555;SDS011;2290;48.674;9.018;2022-12-05T00:33:29;11.57;;;4.47;;
4555;SDS011;2290;48.674;9.018;2022-12-05T00:36:00;10.20;;;5.30;;
4555;SDS011;2290;48.674;9.018;2022-12-05T00:38:26;8.80;;;4.67;;
4555;SDS011;2290;48.674;9.018;2022-12-05T00:40:53;14.97;;;5.00;;
4555;SDS011;2290;48.674;9.018;2022-12-05T00:43:22;12.23;;;4.80;;
4555;SDS011;2290;48.674;9.018;2022-12-05T00:45:49;12.80;;;4.97;;
4555;SDS011;2290;48.674;9.018;2022-12-05T00:48:14;11.40;;;4.37;;
4555;SDS011;2290;48.674;9.018;2022-12-05T00:50:41;12.80;;;5.37;;
4555;SDS011;2290;48.674;9.018;2022-12-05T00:53:07;10.53;;;4.90;;
4555;SDS011;2290;48.674;9.018;2022-12-05T00:55:35;10.30;;;4.70;;
4555;SDS011;2290;48.674;9.018;2022-12-05T00:58:01;9.00;;;4.23;;
4555;SDS011;2290;48.674;9.018;2022-12-05T01:00:29;9.33;;;3.83;;
4555;SDS011;2290;48.674;9.018;2022-12-05T01:02:55;11.57;;;5.07;;
4555;SDS011;2290;48.674;9.018;2022-12-05T01:05:20;6.23;;;3.30;;
4555;SDS011;2290;48.674;9.018;2022-12-05T01:07:46;14.07;;;4.53;;
4555;SDS011;2290;48.674;9.018;2022-12-05T01:10:11;8.17;;;4.47;;
4555;SDS011;2290;48.674;9.018;2022-12-05T01:12:37;9.60;;;4.90;;
4555;SDS011;2290;48.674;9.018;2022-12-05T01:15:03;9.10;;;4.03;;
4555;SDS011;2290;48.674;9.018;2022-12-05T01:17:28;9.43;;;4.30;;
4555;SDS011;2290;48.674;9.018;2022-12-05T01:19:56;12.07;;;5.00;;
4555;SDS011;2290;48.674;9.018;2022-12-05T01:22:21;10.00;;;4.73;;
4555;SDS011;2290;48.674;9.018;2022-12-05T01:24:47;10.57;;;4.37;;
4555;SDS011;2290;48.674;9.018;2022-12-05T01:27:14;8.10;;;3.93;;
4555;SDS011;2290;48.674;9.018;2022-12-05T01:29:39;13.73;;;5.03;;
4555;SDS011;2290;48.674;9.018;2022-12-05T01:32:05;13.60;;;4.87;;
4555;SDS011;2290;48.674;9.018;2022-12-05T01:34:30;10.77;;;4.27;;
4555;SDS011;2290;48.674;9.018;2022-12-05T01:36:56;7.83;;;4.37;;
4555;SDS011;2290;48.674;9.018;2022-12-05T01:39:23;8.97;;;4.60;;
4555;SDS011;2290;48.674;9.018;2022-12-05T01:41:49;11.90;;;5.20;;
4555;SDS011;2290;48.674;9.018;2022-12-05T01:46:44;8.57;;;4.73;;
4555;SDS011;2290;48.674;9.018;2022-12-05T01:49:16;10.63;;;4.27;;
4555;SDS011;2290;48.674;9.018;2022-12-05T01:51:51;8.60;;;4.43;;
4555;SDS011;2290;48.674;9.018;2022-12-05T01:54:19;14.27;;;4.80;;
4555;SDS011;2290;48.674;9.018;2022-12-05T01:56:52;13.13;;;5.07;;
4555;SDS011;2290;48.674;9.018;2022-12-05T01:59:22;9.17;;;4.13;;
4555;SDS011;2290;48.674;9.018;2022-12-05T02:01:48;10.37;;;4.50;;
4555;SDS011;2290;48.674;9.018;2022-12-05T02:04:14;12.03;;;4.93;;
4555;SDS011;2290;48.674;9.018;2022-12-05T02:06:40;13.90;;;5.37;;
4555;SDS011;2290;48.674;9.018;2022-12-05T02:09:07;7.50;;;4.20;;
4555;SDS011;2290;48.674;9.018;2022-12-05T02:11:33;12.77;;;6.00;;
4555;SDS011;2290;48.674;9.018;2022-12-05T02:14:08;13.07;;;5.00;;
4555;SDS011;2290;48.674;9.018;2022-12-05T02:31:07;9.73;;;4.87;;
4555;SDS011;2290;48.674;9.018;2022-12-05T02:36:43;12.67;;;5.20;;
4555;SDS011;2290;48.674;9.018;2022-12-05T02:39:46;7.87;;;4.33;;
4555;SDS011;2290;48.674;9.018;2022-12-05T02:44:53;16.40;;;6.37;;
4555;SDS011;2290;48.674;9.018;2022-12-05T02:47:25;14.77;;;5.60;;
4555;SDS011;2290;48.674;9.018;2022-12-05T02:49:56;14.70;;;5.67;;
4555;SDS011;2290;48.674;9.018;2022-12-05T02:52:23;12.40;;;5.37;;
4555;SDS011;2290;48.674;9.018;2022-12-05T02:54:51;12.30;;;5.33;;
4555;SDS011;2290;48.674;9.018;2022-12-05T02:57:18;15.67;;;5.80;;
4555;SDS011;2290;48.674;9.018;2022-12-05T02:59:45;14.80;;;5.27;;
4555;SDS011;2290;48.674;9.018;2022-12-05T03:02:29;10.30;;;4.73;;
4555;SDS011;2290;48.674;9.018;2022-12-05T03:07:48;12.40;;;5.60;;
4555;SDS011;2290;48.674;9.018;2022-12-05T03:10:18;10.63;;;5.03;;
4555;SDS011;2290;48.674;9.018;2022-12-05T03:12:50;13.60;;;5.80;;
4555;SDS011;2290;48.674;9.018;2022-12-05T03:15:25;11.60;;;4.90;;
4555;SDS011;2290;48.674;9.018;2022-12-05T03:18:03;12.33;;;4.57;;
4555;SDS011;2290;48.674;9.018;2022-12-05T03:20:36;12.00;;;5.03;;
4555;SDS011;2290;48.674;9.018;2022-12-05T03:23:09;11.57;;;5.00;;
4555;SDS011;2290;48.674;9.018;2022-12-05T03:25:53;9.70;;;4.63;;
4555;SDS011;2290;48.674;9.018;2022-12-05T03:31:26;8.50;;;4.37;;
4555;SDS011;2290;48.674;9.018;2022-12-05T03:34:05;12.07;;;5.07;;
4555;SDS011;2290;48.674;9.018;2022-12-05T03:36:36;7.67;;;4.07;;
4555;SDS011;2290;48.674;9.018;2022-12-05T03:39:11;12.00;;;4.80;;
4555;SDS011;2290;48.674;9.018;2022-12-05T03:41:47;8.17;;;4.13;;
4555;SDS011;2290;48.674;9.018;2022-12-05T03:44:17;9.17;;;4.50;;
4555;SDS011;2290;48.674;9.018;2022-12-05T03:49:44;10.57;;;4.13;;
4555;SDS011;2290;48.674;9.018;2022-12-05T03:52:15;11.20;;;4.83;;
4555;SDS011;2290;48.674;9.018;2022-12-05T03:54:51;14.67;;;5.13;;
4555;SDS011;2290;48.674;9.018;2022-12-05T03:57:41;7.97;;;4.10;;
4555;SDS011;2290;48.674;9.018;2022-12-05T04:00:15;13.40;;;4.70;;
4555;SDS011;2290;48.674;9.018;2022-12-05T04:08:37;10.67;;;5.40;;
4555;SDS011;2290;48.674;9.018;2022-12-05T04:10:59;9.50;;;4.67;;
4555;SDS011;2290;48.674;9.018;2022-12-05T04:13:29;8.30;;;3.90;;
4555;SDS011;2290;48.674;9.018;2022-12-05T04:16:02;9.50;;;4.63;;
4555;SDS011;2290;48.674;9.018;2022-12-05T04:21:44;10.53;;;4.53;;
4555;SDS011;2290;48.674;9.018;2022-12-05T04:24:22;8.87;;;4.73;;
4555;SDS011;2290;48.674;9.018;2022-12-05T04:30:19;11.10;;;4.20;;
4555;SDS011;2290;48.674;9.018;2022-12-05T04:35:26;11.53;;;4.53;;
4555;SDS011;2290;48.674;9.018;2022-12-05T04:38:31;9.80;;;3.97;;
4555;SDS011;2290;48.674;9.018;2022-12-05T04:40:56;12.00;;;5.53;;
4555;SDS011;2290;48.674;9.018;2022-12-05T04:43:25;11.23;;;3.90;;
4555;SDS011;2290;48.674;9.018;2022-12-05T04:45:54;9.10;;;3.80;;
4555;SDS011;2290;48.674;9.018;2022-12-05T04:48:22;11.67;;;4.80;;
4555;SDS011;2290;48.674;9.018;2022-12-05T04:50:50;9.67;;;4.80;;
4555;SDS011;2290;48.674;9.018;2022-12-05T04:53:19;7.93;;;3.70;;
4555;SDS011;2290;48.674;9.018;2022-12-05T04:55:48;10.03;;;4.33;;
4555;SDS011;2290;48.674;9.018;2022-12-05T04:58:20;8.57;;;3.60;;
4555;SDS011;2290;48.674;9.018;2022-12-05T05:05:49;11.37;;;4.53;;
4555;SDS011;2290;48.674;9.018;2022-12-05T05:08:19;9.10;;;4.00;;
4555;SDS011;2290;48.674;9.018;2022-12-05T05:10:55;8.93;;;4.40;;
4555;SDS011;2290;48.674;9.018;2022-12-05T05:13:27;9.10;;;4.10;;
4555;SDS011;2290;48.674;9.018;2022-12-05T05:15:53;8.67;;;4.40;;
4555;SDS011;2290;48.674;9.018;2022-12-05T05:18:18;10.43;;;4.33;;
4555;SDS011;2290;48.674;9.018;2022-12-05T05:20:44;6.80;;;3.73;;
4555;SDS011;2290;48.674;9.018;2022-12-05T05:23:09;5.57;;;3.20;;
4555;SDS011;2290;48.674;9.018;2022-12-05T05:25:35;8.53;;;3.40;;
4555;SDS011;2290;48.674;9.018;2022-12-05T05:28:01;7.37;;;3.80;;
4555;SDS011;2290;48.674;9.018;2022-12-05T05:30:26;6.20;;;3.70;;
4555;SDS011;2290;48.674;9.018;2022-12-05T05:32:52;6.23;;;3.93;;
4555;SDS011;2290;48.674;9.018;2022-12-05T05:35:19;7.63;;;3.43;;
4555;SDS011;2290;48.674;9.018;2022-12-05T05:37:47;6.60;;;4.10;;
4555;SDS011;2290;48.674;9.018;2022-12-05T05:40:12;5.73;;;3.33;;
4555;SDS011;2290;48.674;9.018;2022-12-05T05:42:42;6.70;;;3.97;;
4555;SDS011;2290;48.674;9.018;2022-12-05T05:45:10;7.33;;;3.67;;
4555;SDS011;2290;48.674;9.018;2022-12-05T05:47:37;8.57;;;4.30;;
4555;SDS011;2290;48.674;9.018;2022-12-05T05:50:04;8.20;;;4.17;;
4555;SDS011;2290;48.674;9.018;2022-12-05T05:52:31;7.23;;;4.10;;
4555;SDS011;2290;48.674;9.018;2022-12-05T05:54:58;8.93;;;4.43;;
4555;SDS011;2290;48.674;9.018;2022-12-05T05:57:23;7.40;;;4.30;;
4555;SDS011;2290;48.674;9.018;2022-12-05T05:59:50;6.20;;;3.70;;
4555;SDS011;2290;48.674;9.018;2022-12-05T06:02:16;8.10;;;3.70;;
4555;SDS011;2290;48.674;9.018;2022-12-05T06:04:41;6.37;;;3.57;;
4555;SDS011;2290;48.674;9.018;2022-12-05T06:07:07;8.03;;;4.40;;
4555;SDS011;2290;48.674;9.018;2022-12-05T06:09:34;7.23;;;3.60;;
4555;SDS011;2290;48.674;9.018;2022-12-05T06:12:00;5.80;;;3.37;;
4555;SDS011;2290;48.674;9.018;2022-12-05T06:14:26;6.60;;;3.57;;
4555;SDS011;2290;48.674;9.018;2022-12-05T06:16:51;9.10;;;4.23;;
4555;SDS011;2290;48.674;9.018;2022-12-05T06:19:17;8.50;;;4.00;;
4555;SDS011;2290;48.674;9.018;2022-12-05T06:21:42;5.53;;;3.13;;
4555;SDS011;2290;48.674;9.018;2022-12-05T06:24:08;5.80;;;3.47;;
4555;SDS011;2290;48.674;9.018;2022-12-05T06:26:34;5.97;;;3.27;;
4555;SDS011;2290;48.674;9.018;2022-12-05T06:29:00;8.00;;;4.10;;
4555;SDS011;2290;48.674;9.018;2022-12-05T06:31:26;6.03;;;3.57;;
4555;SDS011;2290;48.674;9.018;2022-12-05T06:33:55;5.50;;;3.20;;
4555;SDS011;2290;48.674;9.018;2022-12-05T06:36:23;6.97;;;3.43;;
4555;SDS011;2290;48.674;9.018;2022-12-05T06:38:50;5.83;;;3.07;;
4555;SDS011;2290;48.674;9.018;2022-12-05T06:41:16;5.83;;;3.70;;
4555;SDS011;2290;48.674;9.018;2022-12-05T06:43:43;6.00;;;3.33;;
4555;SDS011;2290;48.674;9.018;2022-12-05T06:46:11;7.50;;;4.47;;
4555;SDS011;2290;48.674;9.018;2022-12-05T06:48:37;6.27;;;3.53;;
4555;SDS011;2290;48.674;9.018;2022-12-05T06:51:03;6.57;;;3.40;;
4555;SDS011;2290;48.674;9.018;2022-12-05T06:53:31;6.37;;;3.33;;
4555;SDS011;2290;48.674;9.018;2022-12-05T06:55:58;5.17;;;3.30;;
4555;SDS011;2290;48.674;9.018;2022-12-05T06:58:26;6.70;;;3.70;;
4555;SDS011;2290;48.674;9.018;2022-12-05T07:00:52;5.47;;;3.17;;
4555;SDS011;2290;48.674;9.018;2022-12-05T07:03:36;4.70;;;2.77;;
4555;SDS011;2290;48.674;9.018;2022-12-05T07:06:03;6.70;;;3.40;;
4555;SDS011;2290;48.674;9.018;2022-12-05T07:08:30;8.77;;;4.27;;
4555;SDS011;2290;48.674;9.018;2022-12-05T07:10:56;7.40;;;3.83;;
4555;SDS011;2290;48.674;9.018;2022-12-05T07:13:22;8.10;;;3.93;;
4555;SDS011;2290;48.674;9.018;2022-12-05T07:15:48;6.97;;;3.93;;
4555;SDS011;2290;48.674;9.018;2022-12-05T07:18:14;7.90;;;4.40;;
4555;SDS011;2290;48.674;9.018;2022-12-05T07:20:40;7.83;;;3.00;;
4555;SDS011;2290;48.674;9.018;2022-12-05T07:23:07;5.07;;;3.43;;
4555;SDS011;2290;48.674;9.018;2022-12-05T07:25:33;4.20;;;2.60;;
4555;SDS011;2290;48.674;9.018;2022-12-05T07:28:00;6.00;;;3.30;;
4555;SDS011;2290;48.674;9.018;2022-12-05T07:30:25;6.50;;;3.80;;
4555;SDS011;2290;48.674;9.018;2022-12-05T07:32:51;4.83;;;3.07;;
4555;SDS011;2290;48.674;9.018;2022-12-05T07:35:16;6.40;;;3.70;;
4555;SDS011;2290;48.674;9.018;2022-12-05T07:37:42;7.37;;;3.67;;
4555;SDS011;2290;48.674;9.018;2022-12-05T07:40:08;7.10;;;3.80;;
4555;SDS011;2290;48.674;9.018;2022-12-05T07:42:34;4.10;;;2.63;;
4555;SDS011;2290;48.674;9.018;2022-12-05T07:44:59;5.53;;;3.40;;
4555;SDS011;2290;48.674;9.018;2022-12-05T07:47:25;5.77;;;3.40;;
4555;SDS011;2290;48.674;9.018;2022-12-05T07:49:54;7.33;;;3.20;;
4555;SDS011;2290;48.674;9.018;2022-12-05T07:52:20;4.97;;;3.10;;
4555;SDS011;2290;48.674;9.018;2022-12-05T07:54:45;6.97;;;3.60;;
4555;SDS011;2290;48.674;9.018;2022-12-05T07:57:11;7.00;;;3.83;;
4555;SDS011;2290;48.674;9.018;2022-12-05T07:59:37;6.07;;;3.37;;
4555;SDS011;2290;48.674;9.018;2022-12-05T08:02:02;7.27;;;2.97;;
4555;SDS011;2290;48.674;9.018;2022-12-05T08:04:28;5.07;;;3.43;;
4555;SDS011;2290;48.674;9.018;2022-12-05T08:06:53;4.80;;;2.90;;
4555;SDS011;2290;48.674;9.018;2022-12-05T08:09:19;4.73;;;3.20;;
4555;SDS011;2290;48.674;9.018;2022-12-05T08:11:44;5.63;;;3.90;;
4555;SDS011;2290;48.674;9.018;2022-12-05T08:14:10;6.57;;;3.23;;
4555;SDS011;2290;48.674;9.018;2022-12-05T08:16:36;6.93;;;3.30;;
4555;SDS011;2290;48.674;9.018;2022-12-05T08:19:02;7.10;;;4.10;;
4555;SDS011;2290;48.674;9.018;2022-12-05T08:21:30;5.30;;;3.27;;
4555;SDS011;2290;48.674;9.018;2022-12-05T08:23:56;6.60;;;3.63;;
4555;SDS011;2290;48.674;9.018;2022-12-05T08:26:24;5.63;;;3.47;;
4555;SDS011;2290;48.674;9.018;2022-12-05T08:29:11;7.27;;;3.53;;
4555;SDS011;2290;48.674;9.018;2022-12-05T08:31:44;6.83;;;4.07;;
4555;SDS011;2290;48.674;9.018;2022-12-05T08:34:13;5.03;;;2.80;;
4555;SDS011;2290;48.674;9.018;2022-12-05T08:36:41;5.53;;;3.40;;
4555;SDS011;2290;48.674;9.018;2022-12-05T08:39:07;7.23;;;3.50;;
4555;SDS011;2290;48.674;9.018;2022-12-05T08:41:38;7.50;;;3.10;;
4555;SDS011;2290;48.674;9.018;2022-12-05T08:44:04;8.30;;;4.20;;
4555;SDS011;2290;48.674;9.018;2022-12-05T08:46:32;5.40;;;3.43;;
4555;SDS011;2290;48.674;9.018;2022-12-05T08:49:00;4.80;;;3.43;;
4555;SDS011;2290;48.674;9.018;2022-12-05T08:51:26;6.27;;;3.30;;
4555;SDS011;2290;48.674;9.018;2022-12-05T08:53:52;4.67;;;3.13;;
4555;SDS011;2290;48.674;9.018;2022-12-05T08:56:17;7.30;;;3.43;;
4555;SDS011;2290;48.674;9.018;2022-12-05T08:58:44;7.03;;;3.60;;
4555;SDS011;2290;48.674;9.018;2022-12-05T09:01:11;4.80;;;3.33;;
4555;SDS011;2290;48.674;9.018;2022-12-05T09:03:38;6.17;;;3.10;;
4555;SDS011;2290;48.674;9.018;2022-12-05T09:06:08;5.40;;;3.57;;
4555;SDS011;2290;48.674;9.018;2022-12-05T09:08:35;5.83;;;3.57;;
4555;SDS011;2290;48.674;9.018;2022-12-05T09:11:11;7.30;;;3.20;;
4555;SDS011;2290;48.674;9.018;2022-12-05T09:13:39;5.10;;;3.23;;
4555;SDS011;2290;48.674;9.018;2022-12-05T09:16:06;6.80;;;3.83;;
4555;SDS011;2290;48.674;9.018;2022-12-05T09:18:34;7.10;;;3.50;;
4555;SDS011;2290;48.674;9.018;2022-12-05T09:21:06;5.20;;;2.97;;
4555;SDS011;2290;48.674;9.018;2022-12-05T09:23:34;8.27;;;3.27;;
4555;SDS011;2290;48.674;9.018;2022-12-05T09:26:00;5.27;;;3.00;;
4555;SDS011;2290;48.674;9.018;2022-12-05T09:28:26;8.80;;;3.67;;
4555;SDS011;2290;48.674;9.018;2022-12-05T09:30:56;7.17;;;3.77;;
4555;SDS011;2290;48.674;9.018;2022-12-05T09:33:22;6.47;;;3.10;;
4555;SDS011;2290;48.674;9.018;2022-12-05T09:35:48;10.30;;;3.73;;
4555;SDS011;2290;48.674;9.018;2022-12-05T09:38:14;8.00;;;3.37;;
4555;SDS011;2290;48.674;9.018;2022-12-05T09:40:40;6.17;;;3.50;;
4555;SDS011;2290;48.674;9.018;2022-12-05T09:43:22;6.40;;;3.20;;
4555;SDS011;2290;48.674;9.018;2022-12-05T09:46:16;4.43;;;3.20;;
4555;SDS011;2290;48.674;9.018;2022-12-05T09:48:58;6.20;;;3.83;;
4555;SDS011;2290;48.674;9.018;2022-12-05T09:51:26;3.73;;;2.50;;
4555;SDS011;2290;48.674;9.018;2022-12-05T09:53:52;6.50;;;3.60;;
4555;SDS011;2290;48.674;9.018;2022-12-05T09:56:28;4.37;;;2.83;;
4555;SDS011;2290;48.674;9.018;2022-12-05T09:58:55;3.83;;;2.60;;
4555;SDS011;2290;48.674;9.018;2022-12-05T10:07:05;4.27;;;3.20;;
4555;SDS011;2290;48.674;9.018;2022-12-05T10:15:12;6.03;;;3.43;;
4555;SDS011;2290;48.674;9.018;2022-12-05T10:20:50;5.57;;;3.00;;
4555;SDS011;2290;48.674;9.018;2022-12-05T10:23:27;5.90;;;2.93;;
4555;SDS011;2290;48.674;9.018;2022-12-05T10:26:13;5.30;;;2.97;;
4555;SDS011;2290;48.674;9.018;2022-12-05T10:31:26;4.40;;;2.30;;
4555;SDS011;2290;48.674;9.018;2022-12-05T10:33:57;2.53;;;2.20;;
4555;SDS011;2290;48.674;9.018;2022-12-05T10:36:33;3.80;;;2.30;;
4555;SDS011;2290;48.674;9.018;2022-12-05T10:38:58;2.80;;;2.37;;
4555;SDS011;2290;48.674;9.018;2022-12-05T10:41:24;6.40;;;2.80;;
4555;SDS011;2290;48.674;9.018;2022-12-05T10:43:50;2.10;;;1.80;;
4555;SDS011;2290;48.674;9.018;2022-12-05T10:46:16;3.70;;;2.30;;
4555;SDS011;2290;48.674;9.018;2022-12-05T10:48:42;4.67;;;2.60;;
4555;SDS011;2290;48.674;9.018;2022-12-05T10:51:15;3.43;;;2.23;;
4555;SDS011;2290;48.674;9.018;2022-12-05T10:53:46;5.60;;;1.93;;
4555;SDS011;2290;48.674;9.018;2022-12-05T10:59:02;3.23;;;2.47;;
4555;SDS011;2290;48.674;9.018;2022-12-05T11:01:51;4.80;;;2.27;;
4555;SDS011;2290;48.674;9.018;2022-12-05T11:04:29;2.70;;;1.77;;
4555;SDS011;2290;48.674;9.018;2022-12-05T11:07:09;2.77;;;2.30;;
4555;SDS011;2290;48.674;9.018;2022-12-05T11:10:00;3.43;;;2.23;;
4555;SDS011;2290;48.674;9.018;2022-12-05T11:17:46;3.80;;;2.53;;
4555;SDS011;2290;48.674;9.018;2022-12-05T11:22:48;4.13;;;2.30;;
4555;SDS011;2290;48.674;9.018;2022-12-05T11:27:55;4.00;;;2.57;;
4555;SDS011;2290;48.674;9.018;2022-12-05T11:30:23;2.90;;;2.10;;
4555;SDS011;2290;48.674;9.018;2022-12-05T11:33:09;3.03;;;2.27;;
4555;SDS011;2290;48.674;9.018;2022-12-05T11:35:55;3.03;;;2.40;;
4555;SDS011;2290;48.674;9.018;2022-12-05T11:38:42;6.10;;;3.10;;
4555;SDS011;2290;48.674;9.018;2022-12-05T11:41:31;2.43;;;2.17;;
4555;SDS011;2290;48.674;9.018;2022-12-05T11:51:50;1.87;;;1.67;;
4555;SDS011;2290;48.674;9.018;2022-12-05T11:54:25;3.10;;;2.23;;
4555;SDS011;2290;48.674;9.018;2022-12-05T12:08:26;1.90;;;1.70;;
4555;SDS011;2290;48.674;9.018;2022-12-05T12:25:19;4.03;;;2.10;;
4555;SDS011;2290;48.674;9.018;2022-12-05T12:27:53;3.20;;;2.50;;
4555;SDS011;2290;48.674;9.018;2022-12-05T12:32:57;5.40;;;2.70;;
4555;SDS011;2290;48.674;9.018;2022-12-05T12:36:00;4.60;;;2.27;;
4555;SDS011;2290;48.674;9.018;2022-12-05T12:44:04;5.10;;;2.63;;
4555;SDS011;2290;48.674;9.018;2022-12-05T12:46:56;4.30;;;2.57;;
4555;SDS011;2290;48.674;9.018;2022-12-05T12:52:27;2.67;;;2.20;;
4555;SDS011;2290;48.674;9.018;2022-12-05T12:55:21;3.50;;;2.37;;
4555;SDS011;2290;48.674;9.018;2022-12-05T12:57:56;4.90;;;2.47;;
4555;SDS011;2290;48.674;9.018;2022-12-05T13:01:00;2.80;;;2.07;;
4555;SDS011;2290;48.674;9.018;2022-12-05T13:03:32;2.80;;;2.07;;
4555;SDS011;2290;48.674;9.018;2022-12-05T13:06:06;4.40;;;2.40;;
4555;SDS011;2290;48.674;9.018;2022-12-05T13:09:25;3.77;;;2.40;;
4555;SDS011;2290;48.674;9.018;2022-12-05T13:11:37;3.43;;;2.47;;
4555;SDS011;2290;48.674;9.018;2022-12-05T13:14:08;4.57;;;3.17;;
4555;SDS011;2290;48.674;9.018;2022-12-05T13:16:38;3.90;;;2.60;;
4555;SDS011;2290;48.674;9.018;2022-12-05T13:19:10;4.30;;;2.20;;
4555;SDS011;2290;48.674;9.018;2022-12-05T13:21:44;4.37;;;2.40;;
4555;SDS011;2290;48.674;9.018;2022-12-05T13:24:10;2.73;;;2.13;;
4555;SDS011;2290;48.674;9.018;2022-12-05T13:26:38;3.30;;;1.83;;
4555;SDS011;2290;48.674;9.018;2022-12-05T13:29:17;5.87;;;2.60;;
4555;SDS011;2290;48.674;9.018;2022-12-05T13:31:52;3.30;;;2.30;;
4555;SDS011;2290;48.674;9.018;2022-12-05T13:36:59;2.93;;;2.07;;
4555;SDS011;2290;48.674;9.018;2022-12-05T13:39:52;4.40;;;2.23;;
4555;SDS011;2290;48.674;9.018;2022-12-05T13:42:38;2.40;;;1.87;;
4555;SDS011;2290;48.674;9.018;2022-12-05T13:52:58;3.90;;;2.00;;
4555;SDS011;2290;48.674;9.018;2022-12-05T13:56:02;3.13;;;2.10;;
4555;SDS011;2290;48.674;9.018;2022-12-05T14:01:38;4.87;;;2.50;;
4555;SDS011;2290;48.674;9.018;2022-12-05T14:09:00;2.20;;;2.00;;
4555;SDS011;2290;48.674;9.018;2022-12-05T14:11:27;1.80;;;1.63;;
4555;SDS011;2290;48.674;9.018;2022-12-05T14:13:52;2.30;;;1.40;;
4555;SDS011;2290;48.674;9.018;2022-12-05T14:19:06;2.17;;;1.47;;
4555;SDS011;2290;48.674;9.018;2022-12-05T14:21:47;1.43;;;1.30;;
4555;SDS011;2290;48.674;9.018;2022-12-05T14:32:03;2.03;;;1.37;;
4555;SDS011;2290;48.674;9.018;2022-12-05T14:34:30;2.90;;;1.60;;
4555;SDS011;2290;48.674;9.018;2022-12-05T14:37:06;2.57;;;1.77;;
4555;SDS011;2290;48.674;9.018;2022-12-05T14:39:50;1.80;;;1.70;;
4555;SDS011;2290;48.674;9.018;2022-12-05T14:42:23;1.83;;;1.27;;
4555;SDS011;2290;48.674;9.018;2022-12-05T14:45:02;2.80;;;1.83;;
4555;SDS011;2290;48.674;9.018;2022-12-05T14:47:51;1.90;;;1.70;;
4555;SDS011;2290;48.674;9.018;2022-12-05T14:55:54;1.37;;;1.27;;
4555;SDS011;2290;48.674;9.018;2022-12-05T15:01:44;1.97;;;1.53;;
4555;SDS011;2290;48.674;9.018;2022-12-05T15:06:44;2.30;;;1.53;;
4555;SDS011;2290;48.674;9.018;2022-12-05T15:09:29;2.60;;;1.80;;
4555;SDS011;2290;48.674;9.018;2022-12-05T15:11:55;2.07;;;1.60;;
4555;SDS011;2290;48.674;9.018;2022-12-05T15:14:24;2.50;;;1.80;;
4555;SDS011;2290;48.674;9.018;2022-12-05T15:16:54;3.40;;;1.80;;
4555;SDS011;2290;48.674;9.018;2022-12-05T15:19:25;1.90;;;1.70;;
4555;SDS011;2290;48.674;9.018;2022-12-05T15:21:57;1.50;;;1.40;;
4555;SDS011;2290;48.674;9.018;2022-12-05T15:24:25;2.20;;;1.80;;
4555;SDS011;2290;48.674;9.018;2022-12-05T15:26:52;1.90;;;1.70;;
4555;SDS011;2290;48.674;9.018;2022-12-05T15:34:29;2.00;;;1.53;;
4555;SDS011;2290;48.674;9.018;2022-12-05T15:39:59;2.17;;;1.70;;
4555;SDS011;2290;48.674;9.018;2022-12-05T15:43:14;2.20;;;1.63;;
4555;SDS011;2290;48.674;9.018;2022-12-05T15:45:22;2.13;;;1.70;;
4555;SDS011;2290;48.674;9.018;2022-12-05T15:47:54;2.50;;;1.70;;
4555;SDS011;2290;48.674;9.018;2022-12-05T15:53:15;3.37;;;2.20;;
4555;SDS011;2290;48.674;9.018;2022-12-05T15:56:04;3.00;;;2.07;;
4555;SDS011;2290;48.674;9.018;2022-12-05T16:06:23;2.60;;;1.90;;
4555;SDS011;2290;48.674;9.018;2022-12-05T16:08:52;2.50;;;1.83;;
4555;SDS011;2290;48.674;9.018;2022-12-05T16:11:19;1.97;;;1.50;;
4555;SDS011;2290;48.674;9.018;2022-12-05T16:13:54;1.97;;;1.70;;
4555;SDS011;2290;48.674;9.018;2022-12-05T16:16:23;1.87;;;1.70;;
4555;SDS011;2290;48.674;9.018;2022-12-05T16:18:53;1.93;;;1.73;;
4555;SDS011;2290;48.674;9.018;2022-12-05T16:21:27;3.00;;;1.80;;
4555;SDS011;2290;48.674;9.018;2022-12-05T16:27:03;1.60;;;1.50;;
4555;SDS011;2290;48.674;9.018;2022-12-05T16:29:37;4.73;;;2.50;;
4555;SDS011;2290;48.674;9.018;2022-12-05T16:32:04;2.50;;;1.90;;
4555;SDS011;2290;48.674;9.018;2022-12-05T16:34:39;3.93;;;2.07;;
4555;SDS011;2290;48.674;9.018;2022-12-05T16:37:12;4.33;;;1.93;;
4555;SDS011;2290;48.674;9.018;2022-12-05T16:39:49;2.60;;;2.03;;
4555;SDS011;2290;48.674;9.018;2022-12-05T16:42:21;2.93;;;2.00;;
4555;SDS011;2290;48.674;9.018;2022-12-05T16:47:26;2.03;;;1.60;;
4555;SDS011;2290;48.674;9.018;2022-12-05T16:50:33;2.90;;;2.00;;
4555;SDS011;2290;48.674;9.018;2022-12-05T16:55:37;3.80;;;2.07;;
4555;SDS011;2290;48.674;9.018;2022-12-05T16:58:04;3.77;;;2.33;;
4555;SDS011;2290;48.674;9.018;2022-12-05T17:00:30;2.43;;;2.23;;
4555;SDS011;2290;48.674;9.018;2022-12-05T17:02:57;3.63;;;2.60;;
4555;SDS011;2290;48.674;9.018;2022-12-05T17:05:22;4.40;;;3.00;;
4555;SDS011;2290;48.674;9.018;2022-12-05T17:07:49;3.57;;;2.50;;
4555;SDS011;2290;48.674;9.018;2022-12-05T17:10:15;5.60;;;2.97;;
4555;SDS011;2290;48.674;9.018;2022-12-05T17:12:41;4.10;;;2.60;;
4555;SDS011;2290;48.674;9.018;2022-12-05T17:15:18;3.10;;;2.40;;
4555;SDS011;2290;48.674;9.018;2022-12-05T17:17:44;3.37;;;2.23;;
4555;SDS011;2290;48.674;9.018;2022-12-05T17:20:10;4.60;;;2.40;;
4555;SDS011;2290;48.674;9.018;2022-12-05T17:22:40;3.43;;;2.23;;
4555;SDS011;2290;48.674;9.018;2022-12-05T17:25:20;5.10;;;2.60;;
4555;SDS011;2290;48.674;9.018;2022-12-05T17:27:57;3.37;;;2.50;;
4555;SDS011;2290;48.674;9.018;2022-12-05T17:30:23;2.97;;;2.30;;
4555;SDS011;2290;48.674;9.018;2022-12-05T17:32:49;3.90;;;2.30;;
4555;SDS011;2290;48.674;9.018;2022-12-05T17:35:15;2.90;;;2.40;;
4555;SDS011;2290;48.674;9.018;2022-12-05T17:37:44;3.57;;;2.67;;
4555;SDS011;2290;48.674;9.018;2022-12-05T17:40:10;4.23;;;2.53;;
4555;SDS011;2290;48.674;9.018;2022-12-05T17:42:37;3.23;;;2.37;;
4555;SDS011;2290;48.674;9.018;2022-12-05T17:45:03;3.37;;;2.63;;
4555;SDS011;2290;48.674;9.018;2022-12-05T17:47:32;5.67;;;2.93;;
4555;SDS011;2290;48.674;9.018;2022-12-05T17:49:59;3.53;;;2.67;;
4555;SDS011;2290;48.674;9.018;2022-12-05T17:52:24;2.80;;;2.50;;
4555;SDS011;2290;48.674;9.018;2022-12-05T17:54:51;4.53;;;2.33;;
4555;SDS011;2290;48.674;9.018;2022-12-05T17:57:17;2.23;;;2.00;;
4555;SDS011;2290;48.674;9.018;2022-12-05T17:59:42;4.43;;;2.80;;
4555;SDS011;2290;48.674;9.018;2022-12-05T18:02:08;4.17;;;2.70;;
4555;SDS011;2290;48.674;9.018;2022-12-05T18:04:35;4.40;;;2.80;;
4555;SDS011;2290;48.674;9.018;2022-12-05T18:07:01;2.90;;;2.40;;
4555;SDS011;2290;48.674;9.018;2022-12-05T18:09:26;3.40;;;2.50;;
4555;SDS011;2290;48.674;9.018;2022-12-05T18:11:52;4.77;;;3.00;;
4555;SDS011;2290;48.674;9.018;2022-12-05T18:14:17;4.23;;;2.90;;
4555;SDS011;2290;48.674;9.018;2022-12-05T18:16:43;6.20;;;2.70;;
4555;SDS011;2290;48.674;9.018;2022-12-05T18:19:08;4.00;;;2.57;;
4555;SDS011;2290;48.674;9.018;2022-12-05T18:21:34;5.30;;;2.70;;
4555;SDS011;2290;48.674;9.018;2022-12-05T18:24:00;8.63;;;2.70;;
4555;SDS011;2290;48.674;9.018;2022-12-05T18:26:25;4.33;;;2.93;;
4555;SDS011;2290;48.674;9.018;2022-12-05T18:28:51;3.90;;;2.70;;
4555;SDS011;2290;48.674;9.018;2022-12-05T18:31:18;6.93;;;2.80;;
4555;SDS011;2290;48.674;9.018;2022-12-05T18:33:44;3.90;;;2.10;;
4555;SDS011;2290;48.674;9.018;2022-12-05T18:36:11;7.17;;;2.70;;
4555;SDS011;2290;48.674;9.018;2022-12-05T18:38:39;4.60;;;2.80;;
4555;SDS011;2290;48.674;9.018;2022-12-05T18:41:07;3.90;;;2.57;;
4555;SDS011;2290;48.674;9.018;2022-12-05T18:43:33;4.00;;;2.33;;
4555;SDS011;2290;48.674;9.018;2022-12-05T18:46:00;3.70;;;2.53;;